sensor_id;sensor_type;location;lat;lon;timestamp;temperature;humidity
70826;SHT31;58446;41.490;22.098;2023-02-13T00:01:47;2.51;72.92
70826;SHT31;58446;41.490;22.098;2023-02-13T00:04:21;2.68;72.45
70826;SHT31;58446;41.490;22.098;2023-02-13T00:06:50;2.85;71.76
70826;SHT31;58446;41.490;22.098;2023-02-13T00:09:17;2.87;71.63
70826;SHT31;58446;41.490;22.098;2023-02-13T00:11:43;2.73;71.96
70826;SHT31;58446;41.490;22.098;2023-02-13T00:14:09;2.65;72.33
70826;SHT31;58446;41.490;22.098;2023-02-13T00:16:35;2.71;71.97
70826;SHT31;58446;41.490;22.098;2023-02-13T00:19:02;2.71;72.22
70826;SHT31;58446;41.490;22.098;2023-02-13T00:21:28;2.70;71.89
70826;SHT31;58446;41.490;22.098;2023-02-13T00:23:54;2.68;72.35
70826;SHT31;58446;41.490;22.098;2023-02-13T00:26:21;2.57;72.80
70826;SHT31;58446;41.490;22.098;2023-02-13T00:28:47;2.56;72.87
70826;SHT31;58446;41.490;22.098;2023-02-13T00:31:16;2.53;72.85
70826;SHT31;58446;41.490;22.098;2023-02-13T00:33:42;2.62;72.57
70826;SHT31;58446;41.490;22.098;2023-02-13T00:36:15;2.57;72.81
70826;SHT31;58446;41.490;22.098;2023-02-13T00:38:42;2.27;74.62
70826;SHT31;58446;41.490;22.098;2023-02-13T00:41:09;2.12;75.86
70826;SHT31;58446;41.490;22.098;2023-02-13T00:43:35;2.01;76.49
70826;SHT31;58446;41.490;22.098;2023-02-13T00:46:02;2.17;75.69
70826;SHT31;58446;41.490;22.098;2023-02-13T00:48:29;2.20;75.26
70826;SHT31;58446;41.490;22.098;2023-02-13T00:50:55;2.08;76.83
70826;SHT31;58446;41.490;22.098;2023-02-13T00:53:22;2.44;73.92
70826;SHT31;58446;41.490;22.098;2023-02-13T00:55:48;2.46;74.05
70826;SHT31;58446;41.490;22.098;2023-02-13T00:58:14;2.46;74.24
70826;SHT31;58446;41.490;22.098;2023-02-13T01:00:40;2.67;72.88
70826;SHT31;58446;41.490;22.098;2023-02-13T01:03:06;2.74;72.63
70826;SHT31;58446;41.490;22.098;2023-02-13T01:05:32;2.70;72.68
70826;SHT31;58446;41.490;22.098;2023-02-13T01:07:57;2.50;74.46
70826;SHT31;58446;41.490;22.098;2023-02-13T01:10:24;2.68;72.92
70826;SHT31;58446;41.490;22.098;2023-02-13T01:12:49;2.81;72.41
70826;SHT31;58446;41.490;22.098;2023-02-13T01:15:15;2.81;72.30
70826;SHT31;58446;41.490;22.098;2023-02-13T01:17:41;2.60;73.23
70826;SHT31;58446;41.490;22.098;2023-02-13T01:20:08;2.56;73.50
70826;SHT31;58446;41.490;22.098;2023-02-13T01:22:34;2.40;74.11
70826;SHT31;58446;41.490;22.098;2023-02-13T01:25:00;2.47;73.97
70826;SHT31;58446;41.490;22.098;2023-02-13T01:27:27;2.33;74.86
70826;SHT31;58446;41.490;22.098;2023-02-13T01:29:53;2.29;74.75
70826;SHT31;58446;41.490;22.098;2023-02-13T01:32:19;2.08;75.90
70826;SHT31;58446;41.490;22.098;2023-02-13T01:34:45;2.27;75.07
70826;SHT31;58446;41.490;22.098;2023-02-13T01:37:11;2.37;74.31
70826;SHT31;58446;41.490;22.098;2023-02-13T01:39:37;2.20;75.22
70826;SHT31;58446;41.490;22.098;2023-02-13T01:42:03;2.41;74.31
70826;SHT31;58446;41.490;22.098;2023-02-13T01:44:48;2.62;73.08
70826;SHT31;58446;41.490;22.098;2023-02-13T01:47:48;2.80;72.48
70826;SHT31;58446;41.490;22.098;2023-02-13T01:50:23;2.83;72.48
70826;SHT31;58446;41.490;22.098;2023-02-13T01:52:56;2.81;72.32
70826;SHT31;58446;41.490;22.098;2023-02-13T01:55:23;2.84;72.27
70826;SHT31;58446;41.490;22.098;2023-02-13T01:57:55;2.34;74.30
70826;SHT31;58446;41.490;22.098;2023-02-13T02:00:22;2.36;74.47
70826;SHT31;58446;41.490;22.098;2023-02-13T02:02:56;2.49;73.80
70826;SHT31;58446;41.490;22.098;2023-02-13T02:05:26;2.70;72.74
70826;SHT31;58446;41.490;22.098;2023-02-13T02:07:55;2.71;72.58
70826;SHT31;58446;41.490;22.098;2023-02-13T02:10:21;2.36;74.51
70826;SHT31;58446;41.490;22.098;2023-02-13T02:15:15;2.47;73.80
70826;SHT31;58446;41.490;22.098;2023-02-13T02:17:41;2.26;75.13
70826;SHT31;58446;41.490;22.098;2023-02-13T02:20:19;2.30;74.60
70826;SHT31;58446;41.490;22.098;2023-02-13T02:29:14;2.33;74.95
70826;SHT31;58446;41.490;22.098;2023-02-13T02:46:38;2.37;75.11
70826;SHT31;58446;41.490;22.098;2023-02-13T02:49:34;2.70;73.08
70826;SHT31;58446;41.490;22.098;2023-02-13T02:52:28;2.74;72.88
70826;SHT31;58446;41.490;22.098;2023-02-13T02:55:12;2.29;75.22
70826;SHT31;58446;41.490;22.098;2023-02-13T02:57:44;2.33;74.85
70826;SHT31;58446;41.490;22.098;2023-02-13T03:00:31;2.50;74.11
70826;SHT31;58446;41.490;22.098;2023-02-13T03:03:21;2.64;73.39
70826;SHT31;58446;41.490;22.098;2023-02-13T03:06:33;2.54;73.79
70826;SHT31;58446;41.490;22.098;2023-02-13T03:09:01;2.44;73.96
70826;SHT31;58446;41.490;22.098;2023-02-13T03:11:50;2.40;74.38
70826;SHT31;58446;41.490;22.098;2023-02-13T03:14:34;2.34;74.86
70826;SHT31;58446;41.490;22.098;2023-02-13T03:17:01;2.54;73.81
70826;SHT31;58446;41.490;22.098;2023-02-13T03:25:14;2.60;73.53
70826;SHT31;58446;41.490;22.098;2023-02-13T03:28:24;2.58;73.65
70826;SHT31;58446;41.490;22.098;2023-02-13T03:31:31;2.44;74.07
70826;SHT31;58446;41.490;22.098;2023-02-13T03:34:13;2.27;74.86
70826;SHT31;58446;41.490;22.098;2023-02-13T03:39:52;2.47;74.19
70826;SHT31;58446;41.490;22.098;2023-02-13T03:42:27;2.36;74.50
70826;SHT31;58446;41.490;22.098;2023-02-13T03:44:59;2.50;74.18
70826;SHT31;58446;41.490;22.098;2023-02-13T03:47:46;2.56;73.80
70826;SHT31;58446;41.490;22.098;2023-02-13T03:50:14;2.64;73.82
70826;SHT31;58446;41.490;22.098;2023-02-13T03:52:53;2.70;73.38
70826;SHT31;58446;41.490;22.098;2023-02-13T03:55:46;2.62;73.64
70826;SHT31;58446;41.490;22.098;2023-02-13T03:58:35;2.43;74.79
70826;SHT31;58446;41.490;22.098;2023-02-13T04:01:24;2.51;74.32
70826;SHT31;58446;41.490;22.098;2023-02-13T04:04:21;2.68;73.50
70826;SHT31;58446;41.490;22.098;2023-02-13T04:07:09;2.56;73.82
70826;SHT31;58446;41.490;22.098;2023-02-13T04:09:37;2.60;73.95
70826;SHT31;58446;41.490;22.098;2023-02-13T04:12:24;2.57;73.78
70826;SHT31;58446;41.490;22.098;2023-02-13T04:17:31;2.36;74.98
70826;SHT31;58446;41.490;22.098;2023-02-13T04:19:58;2.26;75.73
70826;SHT31;58446;41.490;22.098;2023-02-13T04:22:24;2.06;76.71
70826;SHT31;58446;41.490;22.098;2023-02-13T04:24:49;2.30;75.17
70826;SHT31;58446;41.490;22.098;2023-02-13T04:27:15;2.25;75.34
70826;SHT31;58446;41.490;22.098;2023-02-13T04:29:41;1.96;76.93
70826;SHT31;58446;41.490;22.098;2023-02-13T04:32:09;2.10;76.15
70826;SHT31;58446;41.490;22.098;2023-02-13T04:34:35;2.15;75.77
70826;SHT31;58446;41.490;22.098;2023-02-13T04:37:01;1.99;76.78
70826;SHT31;58446;41.490;22.098;2023-02-13T04:39:26;1.79;77.87
70826;SHT31;58446;41.490;22.098;2023-02-13T04:41:52;1.94;77.28
70826;SHT31;58446;41.490;22.098;2023-02-13T04:44:17;2.17;75.78
70826;SHT31;58446;41.490;22.098;2023-02-13T04:46:43;2.27;75.52
70826;SHT31;58446;41.490;22.098;2023-02-13T04:49:09;2.25;75.71
70826;SHT31;58446;41.490;22.098;2023-02-13T04:51:35;1.91;77.47
70826;SHT31;58446;41.490;22.098;2023-02-13T04:54:01;1.86;77.87
70826;SHT31;58446;41.490;22.098;2023-02-13T04:56:26;2.20;76.06
70826;SHT31;58446;41.490;22.098;2023-02-13T04:58:53;2.20;75.79
70826;SHT31;58446;41.490;22.098;2023-02-13T05:01:20;1.94;77.63
70826;SHT31;58446;41.490;22.098;2023-02-13T05:03:46;2.09;76.50
70826;SHT31;58446;41.490;22.098;2023-02-13T05:06:12;1.94;77.59
70826;SHT31;58446;41.490;22.098;2023-02-13T05:08:38;1.86;77.74
70826;SHT31;58446;41.490;22.098;2023-02-13T05:11:04;1.69;78.24
70826;SHT31;58446;41.490;22.098;2023-02-13T05:13:30;2.05;76.59
70826;SHT31;58446;41.490;22.098;2023-02-13T05:15:56;1.89;77.48
70826;SHT31;58446;41.490;22.098;2023-02-13T05:18:21;1.95;77.22
70826;SHT31;58446;41.490;22.098;2023-02-13T05:20:47;2.13;76.17
70826;SHT31;58446;41.490;22.098;2023-02-13T05:23:33;1.85;77.74
70826;SHT31;58446;41.490;22.098;2023-02-13T05:25:58;1.92;77.45
70826;SHT31;58446;41.490;22.098;2023-02-13T05:28:24;1.89;77.69
70826;SHT31;58446;41.490;22.098;2023-02-13T05:31:24;1.82;77.62
70826;SHT31;58446;41.490;22.098;2023-02-13T05:33:49;1.99;76.88
70826;SHT31;58446;41.490;22.098;2023-02-13T05:36:15;2.15;76.32
70826;SHT31;58446;41.490;22.098;2023-02-13T05:38:41;2.22;75.84
70826;SHT31;58446;41.490;22.098;2023-02-13T05:41:06;2.33;75.40
70826;SHT31;58446;41.490;22.098;2023-02-13T05:43:32;2.25;75.61
70826;SHT31;58446;41.490;22.098;2023-02-13T05:46:05;2.33;75.24
70826;SHT31;58446;41.490;22.098;2023-02-13T05:48:31;2.34;75.18
70826;SHT31;58446;41.490;22.098;2023-02-13T05:50:57;2.41;74.90
70826;SHT31;58446;41.490;22.098;2023-02-13T05:53:23;2.41;75.09
70826;SHT31;58446;41.490;22.098;2023-02-13T05:55:49;2.40;75.04
70826;SHT31;58446;41.490;22.098;2023-02-13T05:58:18;1.89;77.93
70826;SHT31;58446;41.490;22.098;2023-02-13T06:00:44;2.10;76.81
70826;SHT31;58446;41.490;22.098;2023-02-13T06:03:10;2.34;75.61
70826;SHT31;58446;41.490;22.098;2023-02-13T06:05:35;2.02;78.10
70826;SHT31;58446;41.490;22.098;2023-02-13T06:08:01;2.20;76.43
70826;SHT31;58446;41.490;22.098;2023-02-13T06:10:27;2.15;77.40
70826;SHT31;58446;41.490;22.098;2023-02-13T06:12:52;2.32;76.24
70826;SHT31;58446;41.490;22.098;2023-02-13T06:15:18;2.17;77.06
70826;SHT31;58446;41.490;22.098;2023-02-13T06:17:44;2.20;77.28
70826;SHT31;58446;41.490;22.098;2023-02-13T06:20:10;2.58;75.30
70826;SHT31;58446;41.490;22.098;2023-02-13T06:22:36;3.12;74.72
70826;SHT31;58446;41.490;22.098;2023-02-13T06:25:01;3.87;71.83
70826;SHT31;58446;41.490;22.098;2023-02-13T06:27:27;4.18;70.80
70826;SHT31;58446;41.490;22.098;2023-02-13T06:29:53;4.45;70.37
70826;SHT31;58446;41.490;22.098;2023-02-13T06:32:18;5.14;67.21
70826;SHT31;58446;41.490;22.098;2023-02-13T06:34:44;5.51;66.14
70826;SHT31;58446;41.490;22.098;2023-02-13T06:37:10;5.42;66.56
70826;SHT31;58446;41.490;22.098;2023-02-13T06:39:35;5.86;65.19
70826;SHT31;58446;41.490;22.098;2023-02-13T06:42:01;5.55;65.96
70826;SHT31;58446;41.490;22.098;2023-02-13T06:44:27;6.02;64.64
70826;SHT31;58446;41.490;22.098;2023-02-13T06:46:52;6.32;63.39
70826;SHT31;58446;41.490;22.098;2023-02-13T06:49:18;6.44;63.42
70826;SHT31;58446;41.490;22.098;2023-02-13T06:51:43;6.41;63.11
70826;SHT31;58446;41.490;22.098;2023-02-13T06:54:09;6.68;62.44
70826;SHT31;58446;41.490;22.098;2023-02-13T06:56:35;6.65;63.21
70826;SHT31;58446;41.490;22.098;2023-02-13T06:59:00;6.45;63.49
70826;SHT31;58446;41.490;22.098;2023-02-13T07:01:26;6.33;64.12
70826;SHT31;58446;41.490;22.098;2023-02-13T07:03:52;6.29;64.01
70826;SHT31;58446;41.490;22.098;2023-02-13T07:06:18;6.12;63.60
70826;SHT31;58446;41.490;22.098;2023-02-13T07:08:45;6.24;64.43
70826;SHT31;58446;41.490;22.098;2023-02-13T07:11:18;6.22;64.17
70826;SHT31;58446;41.490;22.098;2023-02-13T07:13:44;6.22;64.17
70826;SHT31;58446;41.490;22.098;2023-02-13T07:16:10;6.24;64.13
70826;SHT31;58446;41.490;22.098;2023-02-13T07:18:36;6.05;64.51
70826;SHT31;58446;41.490;22.098;2023-02-13T07:21:02;6.19;64.51
70826;SHT31;58446;41.490;22.098;2023-02-13T07:23:27;6.32;63.71
70826;SHT31;58446;41.490;22.098;2023-02-13T07:25:53;6.29;64.17
70826;SHT31;58446;41.490;22.098;2023-02-13T07:28:19;6.30;64.12
70826;SHT31;58446;41.490;22.098;2023-02-13T07:30:44;6.34;63.90
70826;SHT31;58446;41.490;22.098;2023-02-13T07:33:10;6.53;63.47
70826;SHT31;58446;41.490;22.098;2023-02-13T07:35:36;6.80;62.78
70826;SHT31;58446;41.490;22.098;2023-02-13T07:38:05;6.94;62.61
70826;SHT31;58446;41.490;22.098;2023-02-13T07:40:30;6.94;62.68
70826;SHT31;58446;41.490;22.098;2023-02-13T07:42:59;6.84;62.54
70826;SHT31;58446;41.490;22.098;2023-02-13T07:45:25;6.99;62.25
70826;SHT31;58446;41.490;22.098;2023-02-13T07:47:50;7.01;61.05
70826;SHT31;58446;41.490;22.098;2023-02-13T07:50:19;6.92;61.21
70826;SHT31;58446;41.490;22.098;2023-02-13T07:52:52;6.95;62.28
70826;SHT31;58446;41.490;22.098;2023-02-13T07:55:18;7.09;61.85
70826;SHT31;58446;41.490;22.098;2023-02-13T07:57:43;7.19;61.36
70826;SHT31;58446;41.490;22.098;2023-02-13T08:00:09;7.27;61.48
70826;SHT31;58446;41.490;22.098;2023-02-13T08:02:35;7.37;60.63
70826;SHT31;58446;41.490;22.098;2023-02-13T08:05:01;7.52;59.97
70826;SHT31;58446;41.490;22.098;2023-02-13T08:07:27;7.60;60.82
70826;SHT31;58446;41.490;22.098;2023-02-13T08:09:52;7.70;60.40
70826;SHT31;58446;41.490;22.098;2023-02-13T08:12:36;7.80;59.69
70826;SHT31;58446;41.490;22.098;2023-02-13T08:15:03;7.95;58.82
70826;SHT31;58446;41.490;22.098;2023-02-13T08:17:29;7.85;58.98
70826;SHT31;58446;41.490;22.098;2023-02-13T08:19:55;8.05;59.14
70826;SHT31;58446;41.490;22.098;2023-02-13T08:22:21;8.05;58.35
70826;SHT31;58446;41.490;22.098;2023-02-13T08:24:46;8.04;58.36
70826;SHT31;58446;41.490;22.098;2023-02-13T08:27:13;8.06;58.71
70826;SHT31;58446;41.490;22.098;2023-02-13T08:29:40;8.11;58.78
70826;SHT31;58446;41.490;22.098;2023-02-13T08:32:06;8.29;58.63
70826;SHT31;58446;41.490;22.098;2023-02-13T08:34:32;8.32;58.58
70826;SHT31;58446;41.490;22.098;2023-02-13T08:36:58;8.48;58.56
70826;SHT31;58446;41.490;22.098;2023-02-13T08:39:23;8.80;57.63
70826;SHT31;58446;41.490;22.098;2023-02-13T08:41:49;8.81;56.51
70826;SHT31;58446;41.490;22.098;2023-02-13T08:44:14;9.00;56.29
70826;SHT31;58446;41.490;22.098;2023-02-13T08:46:40;9.14;55.54
70826;SHT31;58446;41.490;22.098;2023-02-13T08:49:06;9.04;54.38
70826;SHT31;58446;41.490;22.098;2023-02-13T08:51:31;9.11;54.91
70826;SHT31;58446;41.490;22.098;2023-02-13T08:53:57;9.24;54.25
70826;SHT31;58446;41.490;22.098;2023-02-13T08:56:23;9.35;54.54
70826;SHT31;58446;41.490;22.098;2023-02-13T08:58:48;9.25;54.20
70826;SHT31;58446;41.490;22.098;2023-02-13T09:01:14;9.07;55.73
70826;SHT31;58446;41.490;22.098;2023-02-13T09:03:40;9.03;53.03
70826;SHT31;58446;41.490;22.098;2023-02-13T09:06:06;8.25;56.10
70826;SHT31;58446;41.490;22.098;2023-02-13T09:08:34;7.87;56.86
70826;SHT31;58446;41.490;22.098;2023-02-13T09:11:01;7.81;57.04
70826;SHT31;58446;41.490;22.098;2023-02-13T09:13:28;7.78;57.50
70826;SHT31;58446;41.490;22.098;2023-02-13T09:15:58;7.77;57.90
70826;SHT31;58446;41.490;22.098;2023-02-13T09:18:24;8.20;58.18
70826;SHT31;58446;41.490;22.098;2023-02-13T09:20:59;8.73;56.28
70826;SHT31;58446;41.490;22.098;2023-02-13T09:23:25;9.10;54.52
70826;SHT31;58446;41.490;22.098;2023-02-13T09:25:51;9.41;53.15
70826;SHT31;58446;41.490;22.098;2023-02-13T09:28:16;9.56;52.58
70826;SHT31;58446;41.490;22.098;2023-02-13T09:30:42;9.49;52.87
70826;SHT31;58446;41.490;22.098;2023-02-13T09:33:09;9.48;52.66
70826;SHT31;58446;41.490;22.098;2023-02-13T09:35:36;9.49;51.62
70826;SHT31;58446;41.490;22.098;2023-02-13T09:38:02;9.31;52.90
70826;SHT31;58446;41.490;22.098;2023-02-13T09:40:35;9.24;53.26
70826;SHT31;58446;41.490;22.098;2023-02-13T09:43:17;9.39;52.92
70826;SHT31;58446;41.490;22.098;2023-02-13T09:45:47;9.49;51.79
70826;SHT31;58446;41.490;22.098;2023-02-13T09:48:21;9.55;51.93
70826;SHT31;58446;41.490;22.098;2023-02-13T09:50:52;9.74;51.85
70826;SHT31;58446;41.490;22.098;2023-02-13T09:53:22;9.81;51.80
70826;SHT31;58446;41.490;22.098;2023-02-13T09:55:59;9.95;51.47
70826;SHT31;58446;41.490;22.098;2023-02-13T09:58:44;10.03;50.85
70826;SHT31;58446;41.490;22.098;2023-02-13T10:01:21;9.87;51.38
70826;SHT31;58446;41.490;22.098;2023-02-13T10:06:39;10.10;51.35
70826;SHT31;58446;41.490;22.098;2023-02-13T10:09:26;10.26;50.57
70826;SHT31;58446;41.490;22.098;2023-02-13T10:15:02;9.97;50.72
70826;SHT31;58446;41.490;22.098;2023-02-13T10:17:38;9.81;51.44
70826;SHT31;58446;41.490;22.098;2023-02-13T10:20:14;9.79;51.34
70826;SHT31;58446;41.490;22.098;2023-02-13T10:22:47;9.06;52.44
70826;SHT31;58446;41.490;22.098;2023-02-13T10:25:24;8.52;54.23
70826;SHT31;58446;41.490;22.098;2023-02-13T10:28:00;8.50;54.55
70826;SHT31;58446;41.490;22.098;2023-02-13T10:30:34;8.62;53.77
70826;SHT31;58446;41.490;22.098;2023-02-13T10:33:22;8.32;54.91
70826;SHT31;58446;41.490;22.098;2023-02-13T10:38:19;8.69;53.95
70826;SHT31;58446;41.490;22.098;2023-02-13T10:44:08;8.21;54.92
70826;SHT31;58446;41.490;22.098;2023-02-13T10:50:11;8.15;54.86
70826;SHT31;58446;41.490;22.098;2023-02-13T10:58:42;8.80;55.20
70826;SHT31;58446;41.490;22.098;2023-02-13T11:01:30;9.23;53.32
70826;SHT31;58446;41.490;22.098;2023-02-13T11:04:11;9.35;52.63
70826;SHT31;58446;41.490;22.098;2023-02-13T11:06:41;9.24;53.23
70826;SHT31;58446;41.490;22.098;2023-02-13T11:09:07;9.51;53.17
70826;SHT31;58446;41.490;22.098;2023-02-13T11:11:36;9.37;52.24
70826;SHT31;58446;41.490;22.098;2023-02-13T11:17:03;9.03;53.69
70826;SHT31;58446;41.490;22.098;2023-02-13T11:19:37;9.49;52.77
70826;SHT31;58446;41.490;22.098;2023-02-13T11:22:31;9.87;50.76
70826;SHT31;58446;41.490;22.098;2023-02-13T11:25:06;10.03;50.10
70826;SHT31;58446;41.490;22.098;2023-02-13T11:27:41;9.83;50.51
70826;SHT31;58446;41.490;22.098;2023-02-13T11:30:32;9.55;51.22
70826;SHT31;58446;41.490;22.098;2023-02-13T11:33:00;9.31;51.60
70826;SHT31;58446;41.490;22.098;2023-02-13T11:35:29;9.24;52.34
70826;SHT31;58446;41.490;22.098;2023-02-13T11:40:48;9.20;51.61
70826;SHT31;58446;41.490;22.098;2023-02-13T11:43:22;9.20;51.20
70826;SHT31;58446;41.490;22.098;2023-02-13T11:46:41;9.41;50.98
70826;SHT31;58446;41.490;22.098;2023-02-13T11:49:05;9.30;51.33
70826;SHT31;58446;41.490;22.098;2023-02-13T11:51:38;9.55;50.84
70826;SHT31;58446;41.490;22.098;2023-02-13T11:54:06;9.78;49.73
70826;SHT31;58446;41.490;22.098;2023-02-13T11:56:50;10.07;49.71
70826;SHT31;58446;41.490;22.098;2023-02-13T11:59:16;10.24;48.70
70826;SHT31;58446;41.490;22.098;2023-02-13T12:01:42;10.36;49.73
70826;SHT31;58446;41.490;22.098;2023-02-13T12:04:17;10.50;48.83
70826;SHT31;58446;41.490;22.098;2023-02-13T12:07:01;10.54;48.33
70826;SHT31;58446;41.490;22.098;2023-02-13T12:09:28;10.65;48.10
70826;SHT31;58446;41.490;22.098;2023-02-13T12:11:57;10.64;48.04
70826;SHT31;58446;41.490;22.098;2023-02-13T12:14:36;10.67;47.38
70826;SHT31;58446;41.490;22.098;2023-02-13T12:17:05;10.75;47.79
70826;SHT31;58446;41.490;22.098;2023-02-13T12:19:40;10.81;45.92
70826;SHT31;58446;41.490;22.098;2023-02-13T12:30:32;10.26;47.55
70826;SHT31;58446;41.490;22.098;2023-02-13T12:33:38;10.37;47.40
70826;SHT31;58446;41.490;22.098;2023-02-13T12:39:30;9.95;48.20
70826;SHT31;58446;41.490;22.098;2023-02-13T12:42:00;9.93;48.26
70826;SHT31;58446;41.490;22.098;2023-02-13T12:56:13;9.86;47.93
70826;SHT31;58446;41.490;22.098;2023-02-13T12:59:01;9.93;47.79
70826;SHT31;58446;41.490;22.098;2023-02-13T13:07:17;10.07;47.99
70826;SHT31;58446;41.490;22.098;2023-02-13T13:12:33;10.51;44.96
70826;SHT31;58446;41.490;22.098;2023-02-13T13:25:39;11.01;43.07
70826;SHT31;58446;41.490;22.098;2023-02-13T13:28:14;10.94;42.52
70826;SHT31;58446;41.490;22.098;2023-02-13T13:30:42;10.95;43.38
70826;SHT31;58446;41.490;22.098;2023-02-13T13:33:19;10.78;43.67
70826;SHT31;58446;41.490;22.098;2023-02-13T13:38:50;10.89;43.85
70826;SHT31;58446;41.490;22.098;2023-02-13T13:41:28;10.79;42.92
70826;SHT31;58446;41.490;22.098;2023-02-13T13:49:32;10.98;43.01
70826;SHT31;58446;41.490;22.098;2023-02-13T13:54:43;11.05;42.88
70826;SHT31;58446;41.490;22.098;2023-02-13T13:57:22;10.99;42.15
70826;SHT31;58446;41.490;22.098;2023-02-13T13:59:55;10.94;42.64
70826;SHT31;58446;41.490;22.098;2023-02-13T14:07:44;11.04;42.47
70826;SHT31;58446;41.490;22.098;2023-02-13T14:13:00;10.95;43.18
70826;SHT31;58446;41.490;22.098;2023-02-13T14:20:49;11.02;42.17
70826;SHT31;58446;41.490;22.098;2023-02-13T14:26:32;10.95;42.47
70826;SHT31;58446;41.490;22.098;2023-02-13T14:29:23;11.04;42.33
70826;SHT31;58446;41.490;22.098;2023-02-13T14:32:20;10.69;43.42
70826;SHT31;58446;41.490;22.098;2023-02-13T14:34:51;10.64;43.49
70826;SHT31;58446;41.490;22.098;2023-02-13T14:37:21;10.58;43.43
70826;SHT31;58446;41.490;22.098;2023-02-13T14:42:48;10.53;43.93
70826;SHT31;58446;41.490;22.098;2023-02-13T14:45:19;10.63;43.59
70826;SHT31;58446;41.490;22.098;2023-02-13T14:47:51;10.68;43.71
70826;SHT31;58446;41.490;22.098;2023-02-13T14:50:22;10.65;43.29
70826;SHT31;58446;41.490;22.098;2023-02-13T14:52:49;10.46;43.80
70826;SHT31;58446;41.490;22.098;2023-02-13T14:55:34;10.37;44.14
70826;SHT31;58446;41.490;22.098;2023-02-13T15:00:56;10.47;43.64
70826;SHT31;58446;41.490;22.098;2023-02-13T15:05:51;10.51;44.08
70826;SHT31;58446;41.490;22.098;2023-02-13T15:08:31;10.48;44.04
70826;SHT31;58446;41.490;22.098;2023-02-13T15:10:58;10.47;44.09
70826;SHT31;58446;41.490;22.098;2023-02-13T15:13:31;10.46;43.74
70826;SHT31;58446;41.490;22.098;2023-02-13T15:16:05;10.47;44.04
70826;SHT31;58446;41.490;22.098;2023-02-13T15:18:38;10.48;43.90
70826;SHT31;58446;41.490;22.098;2023-02-13T15:21:05;10.47;44.04
70826;SHT31;58446;41.490;22.098;2023-02-13T15:23:32;10.44;44.09
70826;SHT31;58446;41.490;22.098;2023-02-13T15:26:04;10.41;44.43
70826;SHT31;58446;41.490;22.098;2023-02-13T15:28:33;10.36;44.33
70826;SHT31;58446;41.490;22.098;2023-02-13T15:31:16;10.33;44.82
70826;SHT31;58446;41.490;22.098;2023-02-13T15:33:46;10.27;44.99
70826;SHT31;58446;41.490;22.098;2023-02-13T15:36:18;10.23;45.18
70826;SHT31;58446;41.490;22.098;2023-02-13T15:38:44;10.17;45.12
70826;SHT31;58446;41.490;22.098;2023-02-13T15:41:17;10.13;45.50
70826;SHT31;58446;41.490;22.098;2023-02-13T15:43:46;10.07;45.53
70826;SHT31;58446;41.490;22.098;2023-02-13T15:46:31;9.96;45.11
70826;SHT31;58446;41.490;22.098;2023-02-13T15:49:00;9.97;45.04
70826;SHT31;58446;41.490;22.098;2023-02-13T15:51:29;9.93;45.20
70826;SHT31;58446;41.490;22.098;2023-02-13T15:53:57;9.85;45.29
70826;SHT31;58446;41.490;22.098;2023-02-13T15:56:24;9.76;45.43
70826;SHT31;58446;41.490;22.098;2023-02-13T15:58:51;9.62;45.79
70826;SHT31;58446;41.490;22.098;2023-02-13T16:01:17;9.49;46.51
70826;SHT31;58446;41.490;22.098;2023-02-13T16:03:45;9.42;47.39
70826;SHT31;58446;41.490;22.098;2023-02-13T16:06:14;9.37;47.93
70826;SHT31;58446;41.490;22.098;2023-02-13T16:08:53;9.25;47.38
70826;SHT31;58446;41.490;22.098;2023-02-13T16:16:35;9.10;48.38
70826;SHT31;58446;41.490;22.098;2023-02-13T16:19:06;9.07;48.60
70826;SHT31;58446;41.490;22.098;2023-02-13T16:21:40;9.01;49.14
70826;SHT31;58446;41.490;22.098;2023-02-13T16:24:06;8.93;49.89
70826;SHT31;58446;41.490;22.098;2023-02-13T16:26:34;8.93;50.05
70826;SHT31;58446;41.490;22.098;2023-02-13T16:29:08;8.86;50.26
70826;SHT31;58446;41.490;22.098;2023-02-13T16:31:33;9.01;49.88
70826;SHT31;58446;41.490;22.098;2023-02-13T16:34:26;8.99;49.95
70826;SHT31;58446;41.490;22.098;2023-02-13T16:36:53;8.96;50.32
70826;SHT31;58446;41.490;22.098;2023-02-13T16:39:30;8.87;50.59
70826;SHT31;58446;41.490;22.098;2023-02-13T16:41:58;8.80;50.77
70826;SHT31;58446;41.490;22.098;2023-02-13T16:44:29;8.75;50.84
70826;SHT31;58446;41.490;22.098;2023-02-13T16:47:00;8.57;50.81
70826;SHT31;58446;41.490;22.098;2023-02-13T16:49:28;8.41;51.85
70826;SHT31;58446;41.490;22.098;2023-02-13T16:52:17;8.52;52.22
70826;SHT31;58446;41.490;22.098;2023-02-13T16:54:59;8.49;52.08
70826;SHT31;58446;41.490;22.098;2023-02-13T16:57:33;8.35;52.01
70826;SHT31;58446;41.490;22.098;2023-02-13T17:00:14;8.01;52.04
70826;SHT31;58446;41.490;22.098;2023-02-13T17:02:41;8.16;52.49
70826;SHT31;58446;41.490;22.098;2023-02-13T17:10:06;8.24;52.95
70826;SHT31;58446;41.490;22.098;2023-02-13T17:12:35;8.08;52.83
70826;SHT31;58446;41.490;22.098;2023-02-13T17:15:02;7.94;51.72
70826;SHT31;58446;41.490;22.098;2023-02-13T17:17:30;7.94;53.14
70826;SHT31;58446;41.490;22.098;2023-02-13T17:19:56;7.80;51.28
70826;SHT31;58446;41.490;22.098;2023-02-13T17:24:58;7.46;51.54
70826;SHT31;58446;41.490;22.098;2023-02-13T17:27:24;7.34;51.41
70826;SHT31;58446;41.490;22.098;2023-02-13T17:29:50;7.25;52.08
70826;SHT31;58446;41.490;22.098;2023-02-13T17:32:19;7.18;52.02
70826;SHT31;58446;41.490;22.098;2023-02-13T17:34:45;7.23;52.81
70826;SHT31;58446;41.490;22.098;2023-02-13T17:37:29;7.22;52.32
70826;SHT31;58446;41.490;22.098;2023-02-13T17:39:57;7.18;52.21
70826;SHT31;58446;41.490;22.098;2023-02-13T17:42:25;7.22;53.28
70826;SHT31;58446;41.490;22.098;2023-02-13T17:44:52;7.18;52.35
70826;SHT31;58446;41.490;22.098;2023-02-13T17:47:18;7.12;52.88
70826;SHT31;58446;41.490;22.098;2023-02-13T17:49:44;7.12;53.73
70826;SHT31;58446;41.490;22.098;2023-02-13T17:52:19;7.09;53.17
70826;SHT31;58446;41.490;22.098;2023-02-13T17:54:45;6.91;53.73
70826;SHT31;58446;41.490;22.098;2023-02-13T17:57:13;6.98;53.79
70826;SHT31;58446;41.490;22.098;2023-02-13T17:59:39;6.94;54.31
70826;SHT31;58446;41.490;22.098;2023-02-13T18:02:19;7.01;53.88
70826;SHT31;58446;41.490;22.098;2023-02-13T18:04:46;6.96;54.27
70826;SHT31;58446;41.490;22.098;2023-02-13T18:07:14;6.74;54.49
70826;SHT31;58446;41.490;22.098;2023-02-13T18:09:40;6.89;54.38
70826;SHT31;58446;41.490;22.098;2023-02-13T18:12:08;7.09;55.98
70826;SHT31;58446;41.490;22.098;2023-02-13T18:14:36;7.08;55.34
70826;SHT31;58446;41.490;22.098;2023-02-13T18:17:02;6.95;53.44
70826;SHT31;58446;41.490;22.098;2023-02-13T18:19:27;6.99;53.72
70826;SHT31;58446;41.490;22.098;2023-02-13T18:21:53;6.84;55.17
70826;SHT31;58446;41.490;22.098;2023-02-13T18:24:19;6.70;54.33